createdAt,value
2022-11-20T00:01:34.042Z,-3.80
2022-11-20T00:04:02.476Z,-3.84
2022-11-20T00:06:31.137Z,-3.86
2022-11-20T00:09:01.618Z,-3.87
2022-11-20T00:11:31.388Z,-3.90
2022-11-20T00:14:01.111Z,-3.87
2022-11-20T00:16:32.707Z,-3.89
2022-11-20T00:19:00.753Z,-3.91
2022-11-20T00:21:30.113Z,-3.90
2022-11-20T00:23:58.743Z,-4.02
2022-11-20T00:26:28.353Z,-4.03
2022-11-20T00:28:58.856Z,-4.06
2022-11-20T00:31:27.703Z,-4.08
2022-11-20T00:33:56.207Z,-4.04
2022-11-20T00:36:27.898Z,-4.00
2022-11-20T00:38:57.682Z,-4.02
2022-11-20T00:41:27.147Z,-4.01
2022-11-20T00:43:56.224Z,-4.06
2022-11-20T00:46:26.634Z,-4.05
2022-11-20T00:48:56.014Z,-3.99
2022-11-20T00:51:27.133Z,-4.13
2022-11-20T00:54:01.346Z,-4.13
2022-11-20T00:56:30.040Z,-4.13
2022-11-20T00:59:01.362Z,-4.18
2022-11-20T01:01:33.342Z,-4.22
2022-11-20T01:04:01.937Z,-4.23
2022-11-20T01:06:35.924Z,-4.23
2022-11-20T01:09:11.098Z,-4.21
2022-11-20T01:11:42.578Z,-4.19
2022-11-20T01:14:21.021Z,-4.15
2022-11-20T01:16:51.980Z,-4.13
2022-11-20T01:19:23.116Z,-4.17
2022-11-20T01:21:53.241Z,-4.18
2022-11-20T01:24:22.789Z,-4.14
2022-11-20T01:26:52.398Z,-4.18
2022-11-20T01:29:23.410Z,-4.17
2022-11-20T01:31:53.864Z,-4.12
2022-11-20T01:34:23.526Z,-4.03
2022-11-20T01:36:52.888Z,-4.05
2022-11-20T01:39:23.727Z,-4.04
2022-11-20T01:42:11.966Z,-4.06
2022-11-20T01:45:01.750Z,-3.98
2022-11-20T01:47:29.935Z,-3.99
2022-11-20T01:50:08.213Z,-3.96
2022-11-20T01:52:44.334Z,-3.87
2022-11-20T01:55:17.111Z,-3.81
2022-11-20T01:57:46.172Z,-3.77
2022-11-20T02:00:17.956Z,-3.74
2022-11-20T02:03:14.243Z,-3.73
2022-11-20T02:05:57.114Z,-3.71
2022-11-20T02:08:26.119Z,-3.73
2022-11-20T02:10:54.141Z,-3.67
2022-11-20T02:13:41.413Z,-3.60
2022-11-20T02:16:27.091Z,-3.51
2022-11-20T02:18:56.951Z,-3.54
2022-11-20T02:21:28.218Z,-3.64
2022-11-20T02:24:03.764Z,-3.76
2022-11-20T02:26:35.621Z,-3.80
2022-11-20T02:29:05.298Z,-3.83
2022-11-20T02:31:42.564Z,-3.90
2022-11-20T02:34:10.636Z,-3.83
2022-11-20T02:36:40.727Z,-3.81
2022-11-20T02:39:08.754Z,-3.77
2022-11-20T02:41:38.406Z,-3.80
2022-11-20T02:44:08.939Z,-3.83
2022-11-20T02:46:37.032Z,-3.76
2022-11-20T02:49:06.346Z,-3.81
2022-11-20T02:51:34.372Z,-3.90
2022-11-20T02:54:02.610Z,-3.94
2022-11-20T02:56:30.457Z,-3.89
2022-11-20T02:58:59.003Z,-3.80
2022-11-20T03:01:26.832Z,-3.76
2022-11-20T03:03:56.320Z,-3.79
2022-11-20T03:06:24.102Z,-3.75
2022-11-20T03:08:52.720Z,-3.78
2022-11-20T03:11:20.546Z,-3.87
2022-11-20T03:13:49.173Z,-3.76
2022-11-20T03:16:19.149Z,-3.86
2022-11-20T03:18:47.765Z,-3.77
2022-11-20T03:21:16.721Z,-3.83
2022-11-20T03:23:45.043Z,-3.71
2022-11-20T03:26:22.490Z,-3.78
2022-11-20T03:28:53.040Z,-3.73
2022-11-20T03:31:23.731Z,-3.74
2022-11-20T03:33:52.380Z,-3.73
2022-11-20T03:36:21.104Z,-3.74
2022-11-20T03:38:50.283Z,-3.72
2022-11-20T03:41:26.531Z,-3.79
2022-11-20T03:44:00.040Z,-3.73
2022-11-20T03:46:28.699Z,-3.78
2022-11-20T03:48:57.443Z,-3.82
2022-11-20T03:51:28.356Z,-3.82
2022-11-20T03:53:58.285Z,-3.93
2022-11-20T03:56:34.444Z,-3.92
2022-11-20T03:59:02.910Z,-3.99
2022-11-20T04:01:38.738Z,-4.05
2022-11-20T04:04:07.060Z,-4.10
2022-11-20T04:06:37.926Z,-4.16
2022-11-20T04:09:06.905Z,-4.30
2022-11-20T04:11:37.367Z,-4.48
2022-11-20T04:14:08.014Z,-4.45
2022-11-20T04:16:37.625Z,-4.50
2022-11-20T04:19:08.250Z,-4.52
2022-11-20T04:21:36.165Z,-4.53
2022-11-20T04:24:04.638Z,-4.55
2022-11-20T04:26:33.236Z,-4.56
2022-11-20T04:29:04.870Z,-4.52
2022-11-20T04:31:35.376Z,-4.59
2022-11-20T04:34:05.554Z,-4.61
2022-11-20T04:36:34.414Z,-4.68
2022-11-20T04:39:05.764Z,-4.66
2022-11-20T04:41:35.905Z,-4.74
2022-11-20T04:44:06.487Z,-4.71
2022-11-20T04:46:40.796Z,-4.76
2022-11-20T04:49:09.564Z,-4.77
2022-11-20T04:51:37.485Z,-4.80
2022-11-20T04:54:05.965Z,-4.78
2022-11-20T04:56:34.071Z,-4.79
2022-11-20T04:59:03.345Z,-4.87
2022-11-20T05:01:31.767Z,-4.79
2022-11-20T05:03:59.849Z,-4.84
2022-11-20T05:06:27.975Z,-4.85
2022-11-20T05:08:56.231Z,-4.88
2022-11-20T05:11:24.732Z,-4.93
2022-11-20T05:13:54.372Z,-4.97
2022-11-20T05:16:24.291Z,-4.98
2022-11-20T05:18:53.895Z,-5.02
2022-11-20T05:21:22.236Z,-5.04
2022-11-20T05:23:50.671Z,-5.04
2022-11-20T05:26:22.989Z,-5.08
2022-11-20T05:28:52.453Z,-5.16
2022-11-20T05:31:27.035Z,-5.14
2022-11-20T05:33:57.885Z,-5.14
2022-11-20T05:36:26.320Z,-5.15
2022-11-20T05:38:59.792Z,-5.12
2022-11-20T05:41:29.851Z,-5.07
2022-11-20T05:43:59.306Z,-5.14
2022-11-20T05:46:29.083Z,-5.09
2022-11-20T05:48:59.420Z,-5.08
2022-11-20T05:51:27.565Z,-5.17
2022-11-20T05:53:57.252Z,-5.12
2022-11-20T05:56:25.666Z,-5.15
2022-11-20T05:58:53.559Z,-5.11
2022-11-20T06:01:24.286Z,-5.03
2022-11-20T06:03:53.755Z,-5.07
2022-11-20T06:06:23.681Z,-5.03
2022-11-20T06:08:51.313Z,-4.93
2022-11-20T06:11:19.784Z,-5.02
2022-11-20T06:13:48.497Z,-5.10
2022-11-20T06:16:19.158Z,-5.03
2022-11-20T06:18:47.970Z,-5.09
2022-11-20T06:21:18.790Z,-5.19
2022-11-20T06:23:48.029Z,-5.27
2022-11-20T06:26:25.063Z,-5.34
2022-11-20T06:28:53.472Z,-5.34
2022-11-20T06:31:24.000Z,-5.39
2022-11-20T06:33:52.887Z,-5.36
2022-11-20T06:36:24.103Z,-5.42
2022-11-20T06:38:51.864Z,-5.49
2022-11-20T06:41:21.826Z,-5.61
2022-11-20T06:43:50.344Z,-5.61
2022-11-20T06:46:20.037Z,-5.59
2022-11-20T06:48:48.883Z,-5.68
2022-11-20T06:51:18.340Z,-5.61
2022-11-20T06:53:46.434Z,-5.56
2022-11-20T06:56:14.660Z,-5.55
2022-11-20T06:58:42.479Z,-5.49
2022-11-20T07:01:14.025Z,-5.49
2022-11-20T07:03:42.663Z,-5.39
2022-11-20T07:06:10.655Z,-5.35
2022-11-20T07:08:39.313Z,-5.29
2022-11-20T07:11:09.349Z,-5.31
2022-11-20T07:13:37.399Z,-5.37
2022-11-20T07:16:08.330Z,-5.37
2022-11-20T07:18:37.967Z,-5.37
2022-11-20T07:21:08.587Z,-5.28
2022-11-20T07:23:37.192Z,-5.21
2022-11-20T07:26:10.915Z,-5.20
2022-11-20T07:28:39.298Z,-5.14
2022-11-20T07:31:08.991Z,-5.09
2022-11-20T07:33:36.909Z,-5.07
2022-11-20T07:36:05.631Z,-4.95
2022-11-20T07:38:33.368Z,-4.92
2022-11-20T07:41:03.999Z,-4.83
2022-11-20T07:43:34.850Z,-4.67
2022-11-20T07:46:06.956Z,-4.53
2022-11-20T07:48:34.789Z,-4.42
2022-11-20T07:51:03.420Z,-4.41
2022-11-20T07:53:31.279Z,-4.35
2022-11-20T07:56:03.792Z,-4.28
2022-11-20T07:58:34.368Z,-4.22
2022-11-20T08:01:08.050Z,-4.14
2022-11-20T08:03:38.820Z,-4.06
2022-11-20T08:06:07.672Z,-3.95
2022-11-20T08:08:38.868Z,-3.82
2022-11-20T08:11:29.407Z,-3.70
2022-11-20T08:14:15.787Z,-3.60
2022-11-20T08:16:46.563Z,-3.48
2022-11-20T08:19:16.170Z,-3.37
2022-11-20T08:21:45.137Z,-3.35
2022-11-20T08:24:13.519Z,-3.25
2022-11-20T08:26:42.261Z,-3.24
2022-11-20T08:29:10.124Z,-3.23
2022-11-20T08:31:38.593Z,-3.14
2022-11-20T08:34:26.491Z,-2.79
2022-11-20T08:36:54.744Z,-2.52
2022-11-20T08:39:22.670Z,-2.42
2022-11-20T08:41:50.975Z,-2.37
2022-11-20T08:44:18.780Z,-2.26
2022-11-20T08:46:48.421Z,-2.23
2022-11-20T08:49:16.348Z,-2.16
2022-11-20T08:51:44.660Z,-2.15
2022-11-20T08:54:12.743Z,-2.04
2022-11-20T08:56:41.357Z,-2.04
2022-11-20T08:59:26.965Z,-2.16
2022-11-20T09:01:57.835Z,-2.38
2022-11-20T09:04:25.834Z,-2.42
2022-11-20T09:06:54.301Z,-2.54
2022-11-20T09:09:22.330Z,-2.49
2022-11-20T09:11:51.530Z,-2.51
2022-11-20T09:14:19.502Z,-2.50
2022-11-20T09:16:48.030Z,-2.49
2022-11-20T09:22:04.808Z,-2.49
2022-11-20T09:24:32.590Z,-2.49
2022-11-20T09:27:03.630Z,-2.57
2022-11-20T09:29:32.405Z,-2.60
2022-11-20T09:32:01.347Z,-2.66
2022-11-20T09:34:29.639Z,-2.72
2022-11-20T09:37:01.555Z,-2.77
2022-11-20T09:39:32.941Z,-2.81
2022-11-20T09:42:25.192Z,-2.73
2022-11-20T09:45:21.662Z,-2.74
2022-11-20T09:48:18.592Z,-2.74
2022-11-20T09:51:05.044Z,-2.59
2022-11-20T09:54:11.112Z,-2.60
2022-11-20T09:56:41.921Z,-2.33
2022-11-20T09:59:38.152Z,-2.23
2022-11-20T10:02:48.097Z,-2.09
2022-11-20T10:05:28.462Z,-2.08
2022-11-20T10:08:17.257Z,-1.94
2022-11-20T10:10:53.611Z,-1.69
2022-11-20T10:13:45.770Z,-1.64
2022-11-20T10:16:40.976Z,-1.54
2022-11-20T10:19:39.156Z,-1.52
2022-11-20T10:22:37.110Z,-1.37
2022-11-20T10:25:46.365Z,-1.35
2022-11-20T10:28:37.315Z,-1.11
2022-11-20T10:31:11.912Z,-1.02
2022-11-20T10:34:10.994Z,-0.84
2022-11-20T10:37:13.501Z,-0.87
2022-11-20T10:40:20.133Z,-0.69
2022-11-20T10:42:53.149Z,-0.61
2022-11-20T10:45:30.437Z,-0.45
2022-11-20T10:48:08.933Z,-0.59
2022-11-20T10:50:41.827Z,-0.45
2022-11-20T10:53:35.903Z,-0.37
2022-11-20T10:56:11.376Z,-0.33
2022-11-20T10:58:47.371Z,-0.15
2022-11-20T11:01:18.867Z,-0.24
2022-11-20T11:03:47.366Z,-0.26
2022-11-20T11:06:27.876Z,-0.25
2022-11-20T11:09:00.402Z,-0.29
2022-11-20T11:11:32.369Z,-0.41
2022-11-20T11:14:18.761Z,-0.33
2022-11-20T11:16:53.064Z,-0.22
2022-11-20T11:19:20.997Z,-0.11
2022-11-20T11:21:55.392Z,-0.12
2022-11-20T11:24:44.942Z,0.15
2022-11-20T11:27:17.504Z,0.23
2022-11-20T11:29:46.479Z,0.36
2022-11-20T11:32:16.739Z,0.40
2022-11-20T11:34:45.225Z,0.40
2022-11-20T11:37:20.109Z,0.49
2022-11-20T11:39:55.059Z,0.59
2022-11-20T11:42:29.601Z,0.55
2022-11-20T11:45:13.631Z,0.57
2022-11-20T11:47:45.253Z,0.64
2022-11-20T11:50:13.126Z,0.63
2022-11-20T11:53:19.076Z,0.64
2022-11-20T11:56:11.541Z,0.69
2022-11-20T11:58:47.432Z,0.64
2022-11-20T12:01:50.286Z,0.61
2022-11-20T12:04:20.374Z,0.68
2022-11-20T12:07:13.096Z,0.77
2022-11-20T12:09:55.401Z,0.74
2022-11-20T12:12:44.633Z,0.79
2022-11-20T12:15:15.834Z,0.70
2022-11-20T12:17:43.724Z,0.79
2022-11-20T12:20:15.949Z,0.81
2022-11-20T12:23:11.547Z,0.83
2022-11-20T12:25:40.946Z,0.88
2022-11-20T12:28:08.741Z,0.97
2022-11-20T12:31:02.286Z,1.01
2022-11-20T12:33:48.376Z,1.06
2022-11-20T12:36:23.795Z,0.98
2022-11-20T12:39:06.544Z,1.04
2022-11-20T12:42:06.812Z,1.00
2022-11-20T12:44:53.300Z,0.98
2022-11-20T12:47:51.755Z,0.97
2022-11-20T12:51:14.625Z,0.97
2022-11-20T12:53:51.670Z,0.81
2022-11-20T12:56:33.092Z,0.66
2022-11-20T12:59:27.602Z,0.42
2022-11-20T13:02:02.929Z,0.54
2022-11-20T13:04:37.488Z,0.52
2022-11-20T13:07:11.184Z,0.55
2022-11-20T13:09:46.695Z,0.55
2022-11-20T13:12:25.140Z,0.60
2022-11-20T13:15:18.161Z,0.60
2022-11-20T13:17:53.981Z,0.55
2022-11-20T13:20:22.125Z,0.51
2022-11-20T13:22:58.523Z,0.44
2022-11-20T13:25:40.507Z,0.46
2022-11-20T13:28:11.607Z,0.37
2022-11-20T13:30:51.487Z,0.30
2022-11-20T13:33:38.680Z,0.32
2022-11-20T13:36:27.181Z,0.34
2022-11-20T13:38:57.522Z,0.25
2022-11-20T13:41:36.561Z,0.22
2022-11-20T13:44:10.325Z,0.21
2022-11-20T13:46:46.542Z,0.21
2022-11-20T13:49:33.679Z,0.15
2022-11-20T13:52:28.896Z,0.07
2022-11-20T13:55:18.356Z,0.10
2022-11-20T13:57:52.761Z,0.00
2022-11-20T14:00:23.038Z,-0.03
2022-11-20T14:03:01.066Z,-0.12
2022-11-20T14:05:29.957Z,-0.14
2022-11-20T14:07:58.942Z,-0.21
2022-11-20T14:10:32.046Z,-0.27
2022-11-20T14:13:12.081Z,-0.32
2022-11-20T14:15:45.101Z,-0.41
2022-11-20T14:18:22.957Z,-0.40
2022-11-20T14:20:50.896Z,-0.43
2022-11-20T14:23:30.045Z,-0.42
2022-11-20T14:25:58.544Z,-0.51
2022-11-20T14:28:31.542Z,-0.43
2022-11-20T14:30:59.190Z,-0.55
2022-11-20T14:33:28.636Z,-0.52
2022-11-20T14:35:58.218Z,-0.54
2022-11-20T14:38:30.847Z,-0.55
2022-11-20T14:41:24.445Z,-0.74
2022-11-20T14:43:59.813Z,-0.58
2022-11-20T14:46:28.767Z,-0.69
2022-11-20T14:48:58.736Z,-0.67
2022-11-20T14:51:36.372Z,-0.61
2022-11-20T14:54:11.899Z,-0.71
2022-11-20T14:56:39.994Z,-0.71
2022-11-20T14:59:10.303Z,-0.70
2022-11-20T15:01:39.088Z,-0.77
2022-11-20T15:04:11.784Z,-0.76
2022-11-20T15:06:50.190Z,-0.81
2022-11-20T15:09:18.430Z,-0.93
2022-11-20T15:12:17.495Z,-0.88
2022-11-20T15:14:45.642Z,-0.94
2022-11-20T15:17:13.561Z,-0.91
2022-11-20T15:19:41.941Z,-0.90
2022-11-20T15:22:17.655Z,-0.98
2022-11-20T15:24:47.282Z,-1.02
2022-11-20T15:27:15.093Z,-1.03
2022-11-20T15:29:46.336Z,-1.05
2022-11-20T15:32:16.265Z,-1.06
2022-11-20T15:34:44.851Z,-1.00
2022-11-20T15:37:12.636Z,-1.00
2022-11-20T15:39:40.857Z,-1.08
2022-11-20T15:42:08.546Z,-1.05
2022-11-20T15:44:36.895Z,-1.06
2022-11-20T15:47:05.375Z,-1.13
2022-11-20T15:49:33.545Z,-1.08
2022-11-20T15:52:01.682Z,-1.16
2022-11-20T15:54:30.249Z,-1.24
2022-11-20T15:56:58.318Z,-1.20
2022-11-20T15:59:26.737Z,-1.27
2022-11-20T16:01:54.805Z,-1.32
2022-11-20T16:04:23.361Z,-1.43
2022-11-20T16:06:51.975Z,-1.58
2022-11-20T16:09:20.621Z,-1.65
2022-11-20T16:11:48.347Z,-1.66
2022-11-20T16:14:35.093Z,-1.81
2022-11-20T16:17:03.202Z,-1.87
2022-11-20T16:19:31.298Z,-1.88
2022-11-20T16:22:03.168Z,-1.94
2022-11-20T16:24:32.177Z,-1.96
2022-11-20T16:27:00.518Z,-1.99
2022-11-20T16:29:28.822Z,-2.06
2022-11-20T16:31:58.264Z,-2.12
2022-11-20T16:34:27.239Z,-2.21
2022-11-20T16:36:55.224Z,-2.15
2022-11-20T16:39:24.268Z,-2.27
2022-11-20T16:41:52.156Z,-2.26
2022-11-20T16:44:21.089Z,-2.23
2022-11-20T16:46:49.992Z,-2.25
2022-11-20T16:49:19.136Z,-2.31
2022-11-20T16:51:47.601Z,-2.35
2022-11-20T16:54:20.793Z,-2.39
2022-11-20T16:56:52.197Z,-2.43
2022-11-20T16:59:22.360Z,-2.41
2022-11-20T17:01:51.958Z,-2.48
2022-11-20T17:04:22.541Z,-2.50
2022-11-20T17:06:55.245Z,-2.49
2022-11-20T17:09:24.423Z,-2.51
2022-11-20T17:11:53.331Z,-2.60
2022-11-20T17:14:23.001Z,-2.61
2022-11-20T17:16:51.747Z,-2.56
2022-11-20T17:19:21.203Z,-2.51
2022-11-20T17:21:50.241Z,-2.43
2022-11-20T17:24:18.908Z,-2.51
2022-11-20T17:26:49.184Z,-2.61
2022-11-20T17:29:19.070Z,-2.49
2022-11-20T17:32:06.762Z,-2.43
2022-11-20T17:34:35.005Z,-2.43
2022-11-20T17:37:03.623Z,-2.43
2022-11-20T17:39:31.588Z,-2.37
2022-11-20T17:42:18.175Z,-2.32
2022-11-20T17:44:47.540Z,-2.28
2022-11-20T17:47:16.319Z,-2.29
2022-11-20T17:49:44.453Z,-2.30
2022-11-20T17:52:12.210Z,-2.35
2022-11-20T17:54:40.481Z,-2.38
2022-11-20T17:57:27.911Z,-2.39
2022-11-20T17:59:56.363Z,-2.46
2022-11-20T18:02:24.015Z,-2.44
2022-11-20T18:04:52.459Z,-2.49
2022-11-20T18:07:20.323Z,-2.43
2022-11-20T18:09:48.450Z,-2.47
2022-11-20T18:12:16.527Z,-2.51
2022-11-20T18:14:45.223Z,-2.55
2022-11-20T18:17:14.983Z,-2.59
2022-11-20T18:20:06.795Z,-2.63
2022-11-20T18:22:33.199Z,-2.68
2022-11-20T18:25:02.942Z,-2.71
2022-11-20T18:27:30.922Z,-2.68
2022-11-20T18:29:59.758Z,-2.74
2022-11-20T18:32:27.771Z,-2.68
2022-11-20T18:34:56.193Z,-2.78
2022-11-20T18:37:24.510Z,-2.69
2022-11-20T18:39:52.980Z,-2.75
2022-11-20T18:42:39.442Z,-2.79
2022-11-20T18:45:08.197Z,-2.74
2022-11-20T18:47:40.564Z,-2.74
2022-11-20T18:50:09.673Z,-2.74
2022-11-20T18:52:42.261Z,-2.77
2022-11-20T18:55:10.607Z,-2.83
2022-11-20T18:57:38.634Z,-2.88
2022-11-20T19:00:09.598Z,-2.88
2022-11-20T19:02:42.284Z,-2.88
2022-11-20T19:05:12.515Z,-2.90
2022-11-20T19:07:41.037Z,-2.93
2022-11-20T19:10:09.776Z,-2.95
2022-11-20T19:12:38.401Z,-3.01
2022-11-20T19:15:07.095Z,-3.03
2022-11-20T19:17:35.448Z,-3.08
2022-11-20T19:20:04.207Z,-3.02
2022-11-20T19:22:32.125Z,-3.05
2022-11-20T19:25:00.873Z,-3.15
2022-11-20T19:27:28.673Z,-3.20
2022-11-20T19:30:03.371Z,-3.17
2022-11-20T19:32:33.214Z,-3.20
2022-11-20T19:35:02.142Z,-3.22
2022-11-20T19:37:33.815Z,-3.27
2022-11-20T19:40:04.879Z,-3.23
2022-11-20T19:42:33.022Z,-3.27
2022-11-20T19:45:01.256Z,-3.27
2022-11-20T19:47:46.354Z,-3.25
2022-11-20T19:50:18.065Z,-3.36
2022-11-20T19:52:46.492Z,-3.26
2022-11-20T19:55:15.248Z,-3.34
2022-11-20T19:57:44.047Z,-3.33
2022-11-20T20:00:17.279Z,-3.36
2022-11-20T20:02:50.557Z,-3.32
2022-11-20T20:05:19.567Z,-3.36
2022-11-20T20:07:47.885Z,-3.38
2022-11-20T20:10:18.403Z,-3.32
2022-11-20T20:12:47.056Z,-3.32
2022-11-20T20:15:15.497Z,-3.37
2022-11-20T20:17:43.470Z,-3.44
2022-11-20T20:20:12.799Z,-3.58
2022-11-20T20:22:40.789Z,-3.50
2022-11-20T20:25:09.251Z,-3.50
2022-11-20T20:27:37.337Z,-3.48
2022-11-20T20:30:07.890Z,-3.41
2022-11-20T20:32:36.570Z,-3.46
2022-11-20T20:35:06.317Z,-3.48
2022-11-20T20:37:34.048Z,-3.47
2022-11-20T20:40:02.631Z,-3.42
2022-11-20T20:42:32.352Z,-3.40
2022-11-20T20:45:06.990Z,-3.36
2022-11-20T20:47:37.054Z,-3.37
2022-11-20T20:50:07.393Z,-3.31
2022-11-20T20:52:35.923Z,-3.34
2022-11-20T20:55:04.906Z,-3.39
2022-11-20T20:57:33.230Z,-3.41
2022-11-20T21:00:01.930Z,-3.36
2022-11-20T21:02:29.768Z,-3.38
2022-11-20T21:04:58.492Z,-3.34
2022-11-20T21:07:26.477Z,-3.32
2022-11-20T21:09:54.967Z,-3.31
2022-11-20T21:12:22.838Z,-3.26
2022-11-20T21:14:51.724Z,-3.23
2022-11-20T21:17:19.846Z,-3.23
2022-11-20T21:19:47.952Z,-3.18
2022-11-20T21:22:15.903Z,-3.13
2022-11-20T21:24:44.366Z,-3.08
2022-11-20T21:27:12.252Z,-3.02
2022-11-20T21:29:40.471Z,-2.94
2022-11-20T21:32:08.522Z,-2.91
2022-11-20T21:34:36.985Z,-2.83
2022-11-20T21:37:05.914Z,-2.90
2022-11-20T21:39:34.263Z,-2.86
2022-11-20T21:42:02.018Z,-2.80
2022-11-20T21:44:31.795Z,-2.75
2022-11-20T21:46:59.956Z,-2.71
2022-11-20T21:49:28.276Z,-2.62
2022-11-20T21:51:56.145Z,-2.57
2022-11-20T21:54:24.756Z,-2.53
2022-11-20T21:56:52.791Z,-2.49
2022-11-20T21:59:22.199Z,-2.47
2022-11-20T22:01:50.482Z,-2.43
2022-11-20T22:04:19.275Z,-2.39
2022-11-20T22:06:47.104Z,-2.39
2022-11-20T22:09:15.640Z,-2.37
2022-11-20T22:11:43.643Z,-2.34
2022-11-20T22:14:24.832Z,-2.26
2022-11-20T22:16:53.791Z,-2.28
2022-11-20T22:19:23.477Z,-2.21
2022-11-20T22:21:51.888Z,-2.23
2022-11-20T22:24:21.432Z,-2.18
2022-11-20T22:26:50.228Z,-2.17
2022-11-20T22:29:21.113Z,-2.19
2022-11-20T22:31:51.182Z,-2.22
2022-11-20T22:34:19.827Z,-2.19
2022-11-20T22:36:47.767Z,-2.24
2022-11-20T22:39:16.543Z,-2.28
2022-11-20T22:41:44.486Z,-2.31
2022-11-20T22:44:16.959Z,-2.34
2022-11-20T22:46:45.105Z,-2.32
2022-11-20T22:49:13.595Z,-2.40
2022-11-20T22:51:42.308Z,-2.47
2022-11-20T22:54:11.989Z,-2.49
2022-11-20T22:56:40.418Z,-2.52
2022-11-20T22:59:09.302Z,-2.58
2022-11-20T23:01:38.138Z,-2.61
2022-11-20T23:04:09.587Z,-2.67
2022-11-20T23:06:38.038Z,-2.70
2022-11-20T23:09:07.540Z,-2.76
2022-11-20T23:11:36.341Z,-2.83
2022-11-20T23:14:07.204Z,-2.87
2022-11-20T23:16:35.677Z,-2.83
2022-11-20T23:19:09.247Z,-2.93
2022-11-20T23:21:39.033Z,-2.93
2022-11-20T23:24:08.798Z,-3.02
2022-11-20T23:26:38.516Z,-3.07
2022-11-20T23:29:07.126Z,-3.18
2022-11-20T23:31:35.886Z,-3.22
2022-11-20T23:34:05.437Z,-3.16
2022-11-20T23:36:33.616Z,-3.22
2022-11-20T23:39:01.969Z,-3.22
2022-11-20T23:41:29.939Z,-3.22
2022-11-20T23:43:58.135Z,-3.23
2022-11-20T23:46:26.046Z,-3.14
2022-11-20T23:48:54.016Z,-3.15
2022-11-20T23:51:22.109Z,-3.18
2022-11-20T23:53:50.304Z,-3.13
2022-11-20T23:56:18.091Z,-3.14
2022-11-20T23:58:46.211Z,-3.14
